Airfield :
LOGIN :

Register | Disclaimer

   EN    FR    IT 

 










Legend :    VFR   Marginal VFR   IFR   Intensive IFR   Very Intensive IFR
Visi :
Ceiling :
>= 8 km
>= 3000ft
5 to 8 km
1000 to 3000 ft
1500m to 5 km
500 to 1000 ft
800 to 1500m
200 to 500 ft
< 800m
< 200 ft
Symbols :   Thunderstorms  Fog  Heavy snow  Heavy precipitations  Wind > 20 kt
SIGMETs :     Misc.  Thunderstorms  Icing  Turbulence  Mountain Waves  Volcanic Ashes






- Airport Elevation : 25 ft
- IATA code : QCY


EGXC - RAF Coningsby

CURRENT METAR :
  • 200550Z 22004KT CAVOK 12/11 Q1017 RMK BLU

EXPIRED METARs :
  • 200450Z 10002KT CAVOK 12/10 Q1017 RMK BLU
  • 200350Z 10003KT CAVOK 12/10 Q1017 RMK BLU

TAF TAF EGXC
Valid from the 20 at 06:00 until the 21 at 00:00 UTC


200437Z 2006/2024 18005KT 9999 SCT045
PROB30
TEMPO 2009/2012 7000 RA SCT020
PROB30
TEMPO 2012/2020 6000 SHRA SCT020



MET'MAP, your aeronautical weather chart ! - Copyright ORBIFLY December 2007 - Disclaimer

ORBIFLY MET'MAP TEAM :

Programming & Development : Alexandra Zaïnal
Original concept : Baudouin d'Aumeries
Technical & hardware support : Manuel Goepfert
Assistance : Marc-Olivier Méhu

Contact : metmap@orbifly.com




SOURCES & CREDITS :

   NOAA